Terminal Aerodrome Forecast
Issued by NWS Flagstaff, AZ

Home | Current Version | Previous Version | Text Only | Print | Product List | Glossary On
Versions: 1 2 3 4 5 6 7 8 9 10 11 12 13 14 15 16
000
FTUS45 KFGZ 180500 RRA
TAFINW
TAF
KINW 180541Z 1806/1906 22007KT P6SM VCSH SCT035 BKN080
     FM180800 VRB04KT P6SM VCFG SCT015 BKN025
      TEMPO 1808/1812 3SM BR OVC015
     FM181200 00000KT 3SM BR BKN018
     FM181500 VRB05KT P6SM SCT020 BKN050
      TEMPO 1815/1819 5SM -SHRA OVC018
     FM190100 VRB03KT P6SM FEW025 SCT040=

USA.gov is the U.S. government's official web portal to all federal, state and local government web resources and services.